createdAt,value
2017-10-29T00:00:41.786Z,14.2
2017-10-29T00:01:43.769Z,14.3
2017-10-29T00:02:45.211Z,14.3
2017-10-29T00:03:48.013Z,14.3
2017-10-29T00:04:51.065Z,14.3
2017-10-29T00:05:52.696Z,14.3
2017-10-29T00:06:54.862Z,14.3
2017-10-29T00:07:56.549Z,14.3
2017-10-29T00:08:57.953Z,14.3
2017-10-29T00:09:59.351Z,14.3
2017-10-29T00:11:01.315Z,14.4
2017-10-29T00:12:02.705Z,14.4
2017-10-29T00:13:04.106Z,14.4
2017-10-29T00:14:05.497Z,14.3
2017-10-29T00:15:06.895Z,14.4
2017-10-29T00:16:08.290Z,14.4
2017-10-29T00:17:09.687Z,14.4
2017-10-29T00:18:11.085Z,14.4
2017-10-29T00:19:12.481Z,14.3
2017-10-29T00:20:13.876Z,14.4
2017-10-29T00:21:15.272Z,14.4
2017-10-29T00:22:16.687Z,14.5
2017-10-29T00:23:18.073Z,14.4
2017-10-29T00:24:19.467Z,14.4
2017-10-29T00:25:20.863Z,14.4
2017-10-29T00:26:22.261Z,14.5
2017-10-29T00:27:23.655Z,14.5
2017-10-29T00:28:25.050Z,14.5
2017-10-29T00:29:26.449Z,14.5
2017-10-29T00:30:27.848Z,14.5
2017-10-29T00:31:29.244Z,14.6
2017-10-29T00:32:30.644Z,14.5
2017-10-29T00:33:32.043Z,14.6
2017-10-29T00:34:33.441Z,14.5
2017-10-29T00:35:34.840Z,14.6
2017-10-29T00:36:36.236Z,14.5
2017-10-29T00:37:37.632Z,14.5
2017-10-29T00:38:39.029Z,14.5
2017-10-29T00:39:40.429Z,14.6
2017-10-29T00:40:41.825Z,14.6
2017-10-29T00:41:43.225Z,14.6
2017-10-29T00:42:44.617Z,14.6
2017-10-29T00:43:46.021Z,14.6
2017-10-29T00:44:47.423Z,14.7
2017-10-29T00:45:48.817Z,14.7
2017-10-29T00:46:50.216Z,14.6
2017-10-29T00:47:51.616Z,14.6
2017-10-29T00:48:53.009Z,14.6
2017-10-29T00:49:54.405Z,14.6
2017-10-29T00:50:55.805Z,14.6
2017-10-29T00:51:57.201Z,14.6
2017-10-29T00:52:58.616Z,14.7
2017-10-29T00:54:00.005Z,14.6
2017-10-29T00:55:01.407Z,14.7
2017-10-29T00:56:02.807Z,14.7
2017-10-29T00:57:04.206Z,14.7
2017-10-29T00:58:05.603Z,14.7
2017-10-29T00:59:06.999Z,14.8
2017-10-29T01:00:08.393Z,14.6
2017-10-29T01:01:09.795Z,14.6
2017-10-29T01:02:11.193Z,14.7
2017-10-29T01:03:12.587Z,14.7
2017-10-29T01:04:13.990Z,14.7
2017-10-29T01:05:15.385Z,14.7
2017-10-29T01:06:16.781Z,14.8
2017-10-29T01:07:18.182Z,14.8
2017-10-29T01:08:19.578Z,14.7
2017-10-29T01:09:20.973Z,14.7
2017-10-29T01:10:22.371Z,14.7
2017-10-29T01:11:23.768Z,14.7
2017-10-29T01:12:25.162Z,14.7
2017-10-29T01:13:26.564Z,14.7
2017-10-29T01:14:27.960Z,14.7
2017-10-29T01:15:29.372Z,14.7
2017-10-29T01:16:30.769Z,14.8
2017-10-29T01:17:32.160Z,14.7
2017-10-29T01:18:33.560Z,14.7
2017-10-29T01:19:34.954Z,14.8
2017-10-29T01:20:37.378Z,14.7
2017-10-29T01:21:38.781Z,14.7
2017-10-29T01:22:40.172Z,14.7
2017-10-29T01:23:41.571Z,14.7
2017-10-29T01:24:42.968Z,14.7
2017-10-29T01:25:44.367Z,14.7
2017-10-29T01:26:45.760Z,14.7
2017-10-29T01:27:47.161Z,14.7
2017-10-29T01:28:48.560Z,14.7
2017-10-29T01:29:49.956Z,14.7
2017-10-29T01:30:51.357Z,14.7
2017-10-29T01:31:52.751Z,14.7
2017-10-29T01:32:54.147Z,14.7
2017-10-29T01:33:55.544Z,14.7
2017-10-29T01:34:56.940Z,14.7
2017-10-29T01:35:58.340Z,14.7
2017-10-29T01:36:59.742Z,14.7
2017-10-29T01:38:01.136Z,14.7
2017-10-29T01:39:02.540Z,14.7
2017-10-29T01:40:03.942Z,14.7
2017-10-29T01:41:05.338Z,14.7
2017-10-29T01:42:06.734Z,14.7
2017-10-29T01:43:08.133Z,14.7
2017-10-29T01:44:09.532Z,14.5
2017-10-29T01:45:10.936Z,14.6
2017-10-29T01:46:12.334Z,14.6
2017-10-29T01:47:13.768Z,14.6
2017-10-29T01:48:15.126Z,14.5
2017-10-29T01:49:16.525Z,14.5
2017-10-29T01:50:17.922Z,14.5
2017-10-29T01:51:19.323Z,14.5
2017-10-29T01:52:20.720Z,14.4
2017-10-29T01:53:22.113Z,14.3
2017-10-29T01:54:23.511Z,14.3
2017-10-29T01:55:24.911Z,14.3
2017-10-29T01:56:26.314Z,14.3
2017-10-29T01:57:27.713Z,14.3
2017-10-29T01:58:29.119Z,14.2
2017-10-29T01:59:30.510Z,14.2
2017-10-29T02:00:31.907Z,14.2
2017-10-29T02:01:33.300Z,14.2
2017-10-29T02:02:34.705Z,14.2
2017-10-29T02:03:36.107Z,14.2
2017-10-29T02:04:37.508Z,14.2
2017-10-29T02:05:38.907Z,14.0
2017-10-29T02:06:40.307Z,14.2
2017-10-29T02:07:41.700Z,14.2
2017-10-29T02:08:43.095Z,14.1
2017-10-29T02:09:44.492Z,14.1
2017-10-29T02:10:45.886Z,14.1
2017-10-29T02:11:47.310Z,14.1
2017-10-29T02:12:48.683Z,14.0
2017-10-29T02:13:50.098Z,14.0
2017-10-29T02:14:51.480Z,14.1
2017-10-29T02:15:52.873Z,14.0
2017-10-29T02:16:54.269Z,14.0
2017-10-29T02:17:55.669Z,14.0
2017-10-29T02:18:57.068Z,14.0
2017-10-29T02:19:58.469Z,14.0
2017-10-29T02:20:59.869Z,14.0
2017-10-29T02:22:01.268Z,14.0
2017-10-29T02:23:02.665Z,14.0
2017-10-29T02:24:04.063Z,14.0
2017-10-29T02:25:05.460Z,14.0
2017-10-29T02:26:06.859Z,14.0
2017-10-29T02:27:08.268Z,14.0
2017-10-29T02:28:09.669Z,14.0
2017-10-29T02:29:11.071Z,13.9
2017-10-29T02:30:12.470Z,14.0
2017-10-29T02:31:13.862Z,13.9
2017-10-29T02:32:15.259Z,13.9
2017-10-29T02:33:16.656Z,13.9
2017-10-29T02:34:18.059Z,13.9
2017-10-29T02:35:19.456Z,14.0
2017-10-29T02:36:20.848Z,13.9
2017-10-29T02:37:22.245Z,13.9
2017-10-29T02:38:23.645Z,13.9
2017-10-29T02:39:25.046Z,13.8
2017-10-29T02:40:26.443Z,13.9
2017-10-29T02:41:27.840Z,13.8
2017-10-29T02:42:29.243Z,13.8
2017-10-29T02:43:30.640Z,13.8
2017-10-29T02:44:32.039Z,13.8
2017-10-29T02:45:33.443Z,13.8
2017-10-29T02:46:34.835Z,13.8
2017-10-29T02:47:36.234Z,13.8
2017-10-29T02:48:37.633Z,13.8
2017-10-29T02:49:39.032Z,13.7
2017-10-29T02:50:40.427Z,13.8
2017-10-29T02:51:41.824Z,13.8
2017-10-29T02:52:43.243Z,13.7
2017-10-29T02:53:44.615Z,13.8
2017-10-29T02:54:46.026Z,13.7
2017-10-29T02:55:47.416Z,13.7
2017-10-29T02:56:48.813Z,13.7
2017-10-29T02:57:50.209Z,13.8
2017-10-29T02:58:51.604Z,13.6
2017-10-29T02:59:53.004Z,13.6
2017-10-29T03:00:54.359Z,13.6
2017-10-29T03:01:55.760Z,13.7
2017-10-29T03:02:57.153Z,13.6
2017-10-29T03:03:58.550Z,13.7
2017-10-29T03:04:59.950Z,13.7
2017-10-29T03:06:01.345Z,13.7
2017-10-29T03:07:02.768Z,13.6
2017-10-29T03:08:04.169Z,13.6
2017-10-29T03:09:05.571Z,13.6
2017-10-29T03:10:07.536Z,13.6
2017-10-29T03:11:08.928Z,13.6
2017-10-29T03:12:10.325Z,13.6
2017-10-29T03:13:11.724Z,13.7
2017-10-29T03:14:13.128Z,13.6
2017-10-29T03:15:14.525Z,13.6
2017-10-29T03:16:15.922Z,13.6
2017-10-29T03:17:17.320Z,13.6
2017-10-29T03:18:18.714Z,13.6
2017-10-29T03:19:20.112Z,13.6
2017-10-29T03:20:21.509Z,13.5
2017-10-29T03:21:22.905Z,13.6
2017-10-29T03:22:24.314Z,13.6
2017-10-29T03:23:25.706Z,13.5
2017-10-29T03:24:27.122Z,13.6
2017-10-29T03:25:28.507Z,13.5
2017-10-29T03:26:29.908Z,13.6
2017-10-29T03:27:31.305Z,13.6
2017-10-29T03:28:32.702Z,13.6
2017-10-29T03:29:34.099Z,13.6
2017-10-29T03:30:35.494Z,13.6
2017-10-29T03:31:36.895Z,13.6
2017-10-29T03:32:38.294Z,13.6
2017-10-29T03:33:39.687Z,13.6
2017-10-29T03:34:41.083Z,13.6
2017-10-29T03:35:42.481Z,13.6
2017-10-29T03:36:43.880Z,13.6
2017-10-29T03:37:45.275Z,13.6
2017-10-29T03:38:46.678Z,13.6
2017-10-29T03:39:48.074Z,13.6
2017-10-29T03:40:49.479Z,13.6
2017-10-29T03:41:50.874Z,13.6
2017-10-29T03:42:52.270Z,13.6
2017-10-29T03:43:53.670Z,13.6
2017-10-29T03:44:55.066Z,13.6
2017-10-29T03:45:56.466Z,13.5
2017-10-29T03:46:57.860Z,13.6
2017-10-29T03:47:59.253Z,13.6
2017-10-29T03:49:00.653Z,13.6
2017-10-29T03:50:02.048Z,13.5
2017-10-29T03:51:03.441Z,13.5
2017-10-29T03:52:04.843Z,13.6
2017-10-29T03:53:06.239Z,13.5
2017-10-29T03:54:07.642Z,13.5
2017-10-29T03:55:09.044Z,13.4
2017-10-29T03:56:10.444Z,13.5
2017-10-29T03:57:11.838Z,13.5
2017-10-29T03:58:13.233Z,13.5
2017-10-29T03:59:14.641Z,13.5
2017-10-29T04:00:16.027Z,13.6
2017-10-29T04:01:17.425Z,13.5
2017-10-29T04:02:18.821Z,13.5
2017-10-29T04:03:20.216Z,13.5
2017-10-29T04:04:21.614Z,13.5
2017-10-29T04:05:23.010Z,13.5
2017-10-29T04:06:24.407Z,13.5
2017-10-29T04:07:25.809Z,13.5
2017-10-29T04:08:27.207Z,13.5
2017-10-29T04:09:28.607Z,13.5
2017-10-29T04:10:30.001Z,13.6
2017-10-29T04:11:31.400Z,13.5
2017-10-29T04:12:32.795Z,13.5
2017-10-29T04:13:34.191Z,13.6
2017-10-29T04:14:35.591Z,13.6
2017-10-29T04:15:36.989Z,13.5
2017-10-29T04:16:38.386Z,13.5
2017-10-29T04:17:39.787Z,13.6
2017-10-29T04:18:41.186Z,13.6
2017-10-29T04:19:42.582Z,13.5
2017-10-29T04:20:43.984Z,13.5
2017-10-29T04:21:45.381Z,13.5
2017-10-29T04:22:46.782Z,13.4
2017-10-29T04:23:48.178Z,13.6
2017-10-29T04:24:49.576Z,13.5
2017-10-29T04:25:50.978Z,13.4
2017-10-29T04:26:52.375Z,13.5
2017-10-29T04:27:53.771Z,13.5
2017-10-29T04:28:55.172Z,13.4
2017-10-29T04:29:56.621Z,13.4
2017-10-29T04:30:58.020Z,13.3
2017-10-29T04:31:59.421Z,13.3
2017-10-29T04:33:00.819Z,13.2
2017-10-29T04:34:02.222Z,13.3
2017-10-29T04:35:03.620Z,13.2
2017-10-29T04:36:05.016Z,13.1
2017-10-29T04:37:06.412Z,13.2
2017-10-29T04:38:07.808Z,13.1
2017-10-29T04:39:09.204Z,13.1
2017-10-29T04:40:10.598Z,13.0
2017-10-29T04:41:11.996Z,13.0
2017-10-29T04:42:13.392Z,13.0
2017-10-29T04:43:14.789Z,13.0
2017-10-29T04:44:16.186Z,12.9
2017-10-29T04:45:17.585Z,12.9
2017-10-29T04:46:18.982Z,12.9
2017-10-29T04:47:20.375Z,12.8
2017-10-29T04:48:21.796Z,12.7
2017-10-29T04:49:23.192Z,12.7
2017-10-29T04:50:24.590Z,12.8
2017-10-29T04:51:25.988Z,12.7
2017-10-29T04:52:27.381Z,12.7
2017-10-29T04:53:28.782Z,12.8
2017-10-29T04:54:30.180Z,12.7
2017-10-29T04:55:31.577Z,12.8
2017-10-29T04:56:32.974Z,12.7
2017-10-29T04:57:34.372Z,12.8
2017-10-29T04:58:35.770Z,12.7
2017-10-29T04:59:37.165Z,12.7
2017-10-29T05:00:38.557Z,12.8
2017-10-29T05:01:39.955Z,12.7
2017-10-29T05:02:41.358Z,12.8
2017-10-29T05:03:42.752Z,12.7
2017-10-29T05:04:44.152Z,12.7
2017-10-29T05:05:45.565Z,12.8
2017-10-29T05:06:46.958Z,12.8
2017-10-29T05:07:48.348Z,12.9
2017-10-29T05:08:49.753Z,12.9
2017-10-29T05:09:51.146Z,12.9
2017-10-29T05:10:52.546Z,13.0
2017-10-29T05:11:53.941Z,12.9
2017-10-29T05:12:55.342Z,13.0
2017-10-29T05:13:56.735Z,13.0
2017-10-29T05:14:58.132Z,13.0
2017-10-29T05:15:59.527Z,12.9
2017-10-29T05:17:00.922Z,13.0
2017-10-29T05:18:02.324Z,13.0
2017-10-29T05:19:03.722Z,13.0
2017-10-29T05:20:05.124Z,13.0
2017-10-29T05:21:06.520Z,13.0
2017-10-29T05:22:07.912Z,13.0
2017-10-29T05:23:09.315Z,13.1
2017-10-29T05:24:10.717Z,13.0
2017-10-29T05:25:12.114Z,13.0
2017-10-29T05:26:13.512Z,12.9
2017-10-29T05:27:14.913Z,13.0
2017-10-29T05:28:16.319Z,13.1
2017-10-29T05:29:17.711Z,13.0
2017-10-29T05:30:19.111Z,13.0
2017-10-29T05:31:20.521Z,13.0
2017-10-29T05:32:21.915Z,13.0
2017-10-29T05:33:23.323Z,13.0
2017-10-29T05:34:24.723Z,13.0
2017-10-29T05:35:26.168Z,13.0
2017-10-29T05:36:27.857Z,12.9
2017-10-29T05:37:29.263Z,13.0
2017-10-29T05:38:30.853Z,12.9
2017-10-29T05:39:32.258Z,13.0
2017-10-29T05:40:33.975Z,12.9
2017-10-29T05:41:35.371Z,13.0
2017-10-29T05:42:36.770Z,12.8
2017-10-29T05:43:38.164Z,12.8
2017-10-29T05:44:39.561Z,12.8
2017-10-29T05:45:41.016Z,12.7
2017-10-29T05:46:42.414Z,12.6
2017-10-29T05:47:43.812Z,12.4
2017-10-29T05:48:45.218Z,12.4
2017-10-29T05:49:46.648Z,12.4
2017-10-29T05:50:48.042Z,12.4
2017-10-29T05:51:49.440Z,12.3
2017-10-29T05:52:50.835Z,12.2
2017-10-29T05:53:52.310Z,12.3
2017-10-29T05:54:53.710Z,12.2
2017-10-29T05:55:55.200Z,12.1
2017-10-29T05:56:56.594Z,12.2
2017-10-29T05:57:58.135Z,12.2
2017-10-29T05:58:59.534Z,12.1
2017-10-29T06:00:00.941Z,12.1
2017-10-29T06:01:02.340Z,12.2
2017-10-29T06:02:03.737Z,12.0
2017-10-29T06:03:05.173Z,12.1
2017-10-29T06:04:06.567Z,12.1
2017-10-29T06:05:08.008Z,12.1
2017-10-29T06:06:09.404Z,12.1
2017-10-29T06:07:10.821Z,12.1
2017-10-29T06:08:12.257Z,12.1
2017-10-29T06:09:13.660Z,12.1
2017-10-29T06:10:15.058Z,12.0
2017-10-29T06:11:16.454Z,12.1
2017-10-29T06:12:17.850Z,12.2
2017-10-29T06:13:19.250Z,12.1
2017-10-29T06:14:20.650Z,12.1
2017-10-29T06:15:22.045Z,12.1
2017-10-29T06:16:23.442Z,12.1
2017-10-29T06:17:24.840Z,12.1
2017-10-29T06:18:26.241Z,12.1
2017-10-29T06:19:27.640Z,12.2
2017-10-29T06:20:29.036Z,12.1
2017-10-29T06:21:30.436Z,12.2
2017-10-29T06:22:31.856Z,12.1
2017-10-29T06:23:33.252Z,12.2
2017-10-29T06:24:34.663Z,12.2
2017-10-29T06:25:36.050Z,12.3
2017-10-29T06:26:37.447Z,12.3
2017-10-29T06:27:38.851Z,12.2
2017-10-29T06:28:40.247Z,12.3
2017-10-29T06:29:41.647Z,12.3
2017-10-29T06:30:43.048Z,12.2
2017-10-29T06:31:44.450Z,12.2
2017-10-29T06:32:45.847Z,12.3
2017-10-29T06:33:47.245Z,12.3
2017-10-29T06:34:48.645Z,12.3
2017-10-29T06:35:50.054Z,12.2
2017-10-29T06:36:51.454Z,12.3
2017-10-29T06:37:52.849Z,12.3
2017-10-29T06:38:54.250Z,12.2
2017-10-29T06:39:55.646Z,12.2
2017-10-29T06:40:57.054Z,12.3
2017-10-29T06:41:58.451Z,12.2
2017-10-29T06:42:59.858Z,12.2
2017-10-29T06:44:01.264Z,12.1
2017-10-29T06:45:02.817Z,12.1
2017-10-29T06:46:04.216Z,12.2
2017-10-29T06:47:05.615Z,12.1
2017-10-29T06:48:07.013Z,12.2
2017-10-29T06:49:08.410Z,12.2
2017-10-29T06:50:09.809Z,12.3
2017-10-29T06:51:11.246Z,12.3
2017-10-29T06:52:12.662Z,12.2
2017-10-29T06:53:14.042Z,12.2
2017-10-29T06:54:15.463Z,12.1
2017-10-29T06:55:16.933Z,12.2
2017-10-29T06:56:18.322Z,12.2
2017-10-29T06:57:19.726Z,12.2
2017-10-29T06:58:21.123Z,12.3
2017-10-29T06:59:22.523Z,12.3
2017-10-29T07:00:23.920Z,12.3
2017-10-29T07:01:25.318Z,12.4
2017-10-29T07:02:26.714Z,12.4
2017-10-29T07:03:28.115Z,12.4
2017-10-29T07:04:29.507Z,12.4
2017-10-29T07:05:30.907Z,12.4
2017-10-29T07:06:32.310Z,12.4
2017-10-29T07:07:33.708Z,12.5
2017-10-29T07:08:35.117Z,12.4
2017-10-29T07:09:36.515Z,12.3
2017-10-29T07:10:37.921Z,12.3
2017-10-29T07:11:39.321Z,12.4
2017-10-29T07:12:40.719Z,12.4
2017-10-29T07:13:42.117Z,12.3
2017-10-29T07:14:43.519Z,12.3
2017-10-29T07:15:44.914Z,12.4
2017-10-29T07:16:46.308Z,12.4
2017-10-29T07:17:47.707Z,12.4
2017-10-29T07:18:49.109Z,12.4
2017-10-29T07:19:50.503Z,12.4
2017-10-29T07:20:51.902Z,12.4
2017-10-29T07:21:53.303Z,12.4
2017-10-29T07:22:54.700Z,12.4
2017-10-29T07:23:56.098Z,12.4
2017-10-29T07:24:57.500Z,12.4
2017-10-29T07:25:58.899Z,12.4
2017-10-29T07:27:00.298Z,12.5
2017-10-29T07:28:01.696Z,12.5
2017-10-29T07:29:03.185Z,12.4
2017-10-29T07:30:04.592Z,12.5
2017-10-29T07:31:05.993Z,12.6
2017-10-29T07:32:07.393Z,12.6
2017-10-29T07:33:08.800Z,12.6
2017-10-29T07:34:10.259Z,12.5
2017-10-29T07:35:11.657Z,12.6
2017-10-29T07:36:13.065Z,12.6
2017-10-29T07:38:16.008Z,12.5
2017-10-29T07:39:17.519Z,12.6
2017-10-29T07:40:19.028Z,12.5
2017-10-29T07:41:20.749Z,12.6
2017-10-29T07:42:23.617Z,12.6
2017-10-29T07:43:25.266Z,12.6
2017-10-29T07:45:06.178Z,12.6
2017-10-29T07:46:07.589Z,12.7
2017-10-29T07:47:08.985Z,12.7
2017-10-29T07:48:10.428Z,12.7
2017-10-29T07:49:11.821Z,12.7
2017-10-29T07:50:13.219Z,12.7
2017-10-29T07:51:14.621Z,12.7
2017-10-29T07:52:16.026Z,12.7
2017-10-29T07:53:17.427Z,12.7
2017-10-29T07:54:18.826Z,12.7
2017-10-29T07:55:20.231Z,12.8
2017-10-29T07:56:21.637Z,12.8
2017-10-29T07:57:23.135Z,12.7
2017-10-29T07:58:24.530Z,12.8
2017-10-29T07:59:25.934Z,12.8
2017-10-29T08:00:27.334Z,12.8
2017-10-29T08:01:28.733Z,12.8
2017-10-29T08:02:30.136Z,13.0
2017-10-29T08:03:31.533Z,12.9
2017-10-29T08:04:32.937Z,12.9
2017-10-29T08:05:34.335Z,12.9
2017-10-29T08:06:35.737Z,12.9
2017-10-29T08:07:37.137Z,12.7
2017-10-29T08:08:38.536Z,12.7
2017-10-29T08:09:39.939Z,12.9
2017-10-29T08:10:41.340Z,12.8
2017-10-29T08:11:42.754Z,12.8
2017-10-29T08:12:44.198Z,12.7
2017-10-29T08:13:45.604Z,12.7
2017-10-29T08:14:47.003Z,12.8
2017-10-29T08:15:48.402Z,12.8
2017-10-29T08:16:49.802Z,12.8
2017-10-29T08:17:51.205Z,12.8
2017-10-29T08:18:52.607Z,12.8
2017-10-29T08:19:54.030Z,12.8
2017-10-29T08:20:55.441Z,12.8
2017-10-29T08:21:56.838Z,12.7
2017-10-29T08:22:58.238Z,12.7
2017-10-29T08:23:59.639Z,12.7
2017-10-29T08:25:01.058Z,12.5
2017-10-29T08:26:02.459Z,12.6
2017-10-29T08:27:03.863Z,12.7
2017-10-29T08:28:05.264Z,12.7
2017-10-29T08:29:06.668Z,12.6
2017-10-29T08:30:08.068Z,12.7
2017-10-29T08:31:09.467Z,12.7
2017-10-29T08:32:10.868Z,12.6
2017-10-29T08:33:12.269Z,12.5
2017-10-29T08:34:13.682Z,12.5
2017-10-29T08:35:15.076Z,12.5
2017-10-29T08:36:16.475Z,12.5
2017-10-29T08:37:17.878Z,12.5
2017-10-29T08:38:19.299Z,12.7
2017-10-29T08:39:20.704Z,12.8
2017-10-29T08:40:22.270Z,12.7
2017-10-29T08:41:23.728Z,12.7
2017-10-29T08:42:25.133Z,12.7
2017-10-29T08:43:26.534Z,12.8
2017-10-29T08:44:28.034Z,12.9
2017-10-29T08:45:29.435Z,12.8
2017-10-29T08:46:30.960Z,12.9
2017-10-29T08:47:32.363Z,12.9
2017-10-29T08:48:33.766Z,12.9
2017-10-29T08:49:35.291Z,13.0
2017-10-29T08:50:36.687Z,12.8
2017-10-29T08:51:38.111Z,12.8
2017-10-29T08:52:39.513Z,12.9
2017-10-29T08:53:40.919Z,13.0
2017-10-29T08:54:42.317Z,13.0
2017-10-29T08:55:43.717Z,13.1
2017-10-29T08:56:45.118Z,13.1
2017-10-29T08:57:46.521Z,13.0
2017-10-29T08:58:47.935Z,13.2
2017-10-29T08:59:49.334Z,13.1
2017-10-29T09:00:50.737Z,13.1
2017-10-29T09:01:52.155Z,13.3
2017-10-29T09:02:53.594Z,13.4
2017-10-29T09:03:54.994Z,13.3
2017-10-29T09:04:56.395Z,13.5
2017-10-29T09:05:57.825Z,13.5
2017-10-29T09:06:59.221Z,13.4
2017-10-29T09:08:00.616Z,13.5
2017-10-29T09:09:02.036Z,13.4
2017-10-29T09:10:03.428Z,13.6
2017-10-29T09:11:04.834Z,13.6
2017-10-29T09:12:06.236Z,13.6
2017-10-29T09:13:07.647Z,13.5
2017-10-29T09:14:09.050Z,13.6
2017-10-29T09:15:10.455Z,13.6
2017-10-29T09:16:11.865Z,13.7
2017-10-29T09:17:13.267Z,13.6
2017-10-29T09:18:14.684Z,13.8
2017-10-29T09:19:16.085Z,13.8
2017-10-29T09:20:17.510Z,13.9
2017-10-29T09:21:18.911Z,13.9
2017-10-29T09:22:20.321Z,13.8
2017-10-29T09:23:21.728Z,13.8
2017-10-29T09:24:23.123Z,13.8
2017-10-29T09:25:24.534Z,13.8
2017-10-29T09:26:25.929Z,13.9
2017-10-29T09:27:27.328Z,13.8
2017-10-29T09:28:28.731Z,13.8
2017-10-29T09:29:30.137Z,13.9
2017-10-29T09:30:31.543Z,14.0
2017-10-29T09:31:32.948Z,14.1
2017-10-29T09:32:34.381Z,14.2
2017-10-29T09:33:35.758Z,14.3
2017-10-29T09:34:37.162Z,14.1
2017-10-29T09:35:38.573Z,14.2
2017-10-29T09:36:39.980Z,14.4
2017-10-29T09:37:41.387Z,14.4
2017-10-29T09:38:42.805Z,14.4
2017-10-29T09:39:44.206Z,14.4
2017-10-29T09:40:45.607Z,14.5
2017-10-29T09:41:47.013Z,14.5
2017-10-29T09:42:50.640Z,14.5
2017-10-29T09:43:52.088Z,14.7
2017-10-29T09:44:53.493Z,14.8
2017-10-29T09:45:54.901Z,14.9
2017-10-29T09:46:56.305Z,15.1
2017-10-29T09:47:57.707Z,15.1
2017-10-29T09:48:59.125Z,15.2
2017-10-29T09:50:00.520Z,15.2
2017-10-29T09:51:01.926Z,15.1
2017-10-29T09:52:03.336Z,15.2
2017-10-29T09:53:04.747Z,15.5
2017-10-29T09:54:06.155Z,15.6
2017-10-29T09:55:07.563Z,16.0
2017-10-29T09:56:08.972Z,16.3
2017-10-29T09:57:10.385Z,16.5
2017-10-29T09:58:11.787Z,16.8
2017-10-29T09:59:13.201Z,17.1
2017-10-29T10:00:14.611Z,17.5
2017-10-29T10:01:16.021Z,17.7
2017-10-29T10:02:17.427Z,18.0
2017-10-29T10:03:18.842Z,18.4
2017-10-29T10:04:20.308Z,18.7
2017-10-29T10:05:21.719Z,19.0
2017-10-29T10:06:23.126Z,18.7
2017-10-29T10:07:24.545Z,18.9
2017-10-29T10:08:25.953Z,19.0
2017-10-29T10:09:27.360Z,19.2
2017-10-29T10:10:28.770Z,19.5
2017-10-29T10:11:30.176Z,19.9
2017-10-29T10:12:31.583Z,19.5
2017-10-29T10:13:33.001Z,20.4
2017-10-29T10:14:34.410Z,20.3
2017-10-29T10:15:35.820Z,20.0
2017-10-29T10:16:37.227Z,19.5
2017-10-29T10:17:38.630Z,18.6
2017-10-29T10:18:40.045Z,18.7
2017-10-29T10:19:41.452Z,18.3
2017-10-29T10:20:42.860Z,18.2
2017-10-29T10:21:44.268Z,17.7
2017-10-29T10:22:45.680Z,17.5
2017-10-29T10:23:47.088Z,17.1
2017-10-29T10:24:48.490Z,17.0
2017-10-29T10:25:49.894Z,16.9
2017-10-29T10:26:51.307Z,16.7
2017-10-29T10:27:52.707Z,16.8
2017-10-29T10:28:54.118Z,17.8
2017-10-29T10:29:55.531Z,18.5
2017-10-29T10:30:56.931Z,18.1
2017-10-29T10:31:58.375Z,17.3
2017-10-29T10:32:59.780Z,16.9
2017-10-29T10:34:01.185Z,16.6
2017-10-29T10:35:02.598Z,17.4
2017-10-29T10:36:04.029Z,18.0
2017-10-29T10:37:05.439Z,18.8
2017-10-29T10:38:06.848Z,19.1
2017-10-29T10:39:08.271Z,19.4
2017-10-29T10:40:09.679Z,20.3
2017-10-29T10:41:11.089Z,20.9
2017-10-29T10:42:12.498Z,21.2
2017-10-29T10:43:13.922Z,21.5
2017-10-29T10:44:15.345Z,21.0
2017-10-29T10:45:16.750Z,20.1
2017-10-29T10:46:18.156Z,19.9
2017-10-29T10:47:19.563Z,20.4
2017-10-29T10:48:20.973Z,21.0
2017-10-29T10:49:22.381Z,21.2
2017-10-29T10:50:23.794Z,21.3
2017-10-29T10:51:25.206Z,21.9
2017-10-29T10:52:26.618Z,21.5
2017-10-29T10:53:28.026Z,21.1
2017-10-29T10:54:29.438Z,21.8
2017-10-29T10:55:30.924Z,22.5
2017-10-29T10:56:32.333Z,22.1
2017-10-29T10:57:33.746Z,21.9
2017-10-29T10:58:35.153Z,20.8
2017-10-29T10:59:36.565Z,20.2
2017-10-29T11:00:37.972Z,20.1
2017-10-29T11:01:39.381Z,19.9
2017-10-29T11:02:40.795Z,20.0
2017-10-29T11:03:42.205Z,19.7
2017-10-29T11:04:43.612Z,19.0
2017-10-29T11:05:45.019Z,19.0
2017-10-29T11:06:46.426Z,18.8
2017-10-29T11:07:47.832Z,18.4
2017-10-29T11:08:49.236Z,18.2
2017-10-29T11:09:50.643Z,18.3
2017-10-29T11:10:52.054Z,18.3
2017-10-29T11:11:53.465Z,18.7
2017-10-29T11:12:54.876Z,18.6
2017-10-29T11:13:56.285Z,18.9
2017-10-29T11:14:57.693Z,18.6
2017-10-29T11:15:59.109Z,18.7
2017-10-29T11:17:00.589Z,18.5
2017-10-29T11:18:01.993Z,18.1
2017-10-29T11:19:03.437Z,17.9
2017-10-29T11:20:04.854Z,17.9
2017-10-29T11:21:06.256Z,17.7
2017-10-29T11:22:07.664Z,17.7
2017-10-29T11:23:09.074Z,17.7
2017-10-29T11:24:10.555Z,17.8
2017-10-29T11:25:11.973Z,18.0
2017-10-29T11:26:13.381Z,18.4
2017-10-29T11:27:14.788Z,18.4
2017-10-29T11:28:16.194Z,18.1
2017-10-29T11:29:17.604Z,18.0
2017-10-29T11:30:19.023Z,18.0
2017-10-29T11:31:20.428Z,17.7
2017-10-29T11:32:21.841Z,17.6
2017-10-29T11:33:23.247Z,17.3
2017-10-29T11:34:24.652Z,17.0
2017-10-29T11:35:26.058Z,16.7
2017-10-29T11:36:27.468Z,16.3
2017-10-29T11:37:28.873Z,16.2
2017-10-29T11:38:30.279Z,16.1
2017-10-29T11:39:31.686Z,16.2
2017-10-29T11:40:33.094Z,16.1
2017-10-29T11:41:34.529Z,15.9
2017-10-29T11:42:35.939Z,15.7
2017-10-29T11:43:37.349Z,15.7
2017-10-29T11:44:38.754Z,15.5
2017-10-29T11:45:40.157Z,15.4
2017-10-29T11:46:41.576Z,15.2
2017-10-29T11:47:42.971Z,15.1
2017-10-29T11:48:44.374Z,14.9
2017-10-29T11:49:45.778Z,15.0
2017-10-29T11:50:47.183Z,15.0
2017-10-29T11:51:48.581Z,14.8
2017-10-29T11:52:49.986Z,14.8
2017-10-29T11:53:51.390Z,14.8
2017-10-29T11:54:52.795Z,14.7
2017-10-29T11:55:54.204Z,15.0
2017-10-29T11:56:55.607Z,15.2
2017-10-29T11:57:57.012Z,15.2
2017-10-29T11:58:58.415Z,15.2
2017-10-29T11:59:59.821Z,15.2
2017-10-29T12:01:01.224Z,15.2
2017-10-29T12:02:02.632Z,15.0
2017-10-29T12:03:04.040Z,15.0
2017-10-29T12:04:05.445Z,14.9
2017-10-29T12:05:06.852Z,15.1
2017-10-29T12:06:08.256Z,15.4
2017-10-29T12:07:09.661Z,15.5
2017-10-29T12:08:11.064Z,15.5
2017-10-29T12:09:12.472Z,15.6
2017-10-29T12:10:13.905Z,15.8
2017-10-29T12:11:15.309Z,16.1
2017-10-29T12:12:16.716Z,16.2
2017-10-29T12:13:18.120Z,16.4
2017-10-29T12:14:19.527Z,16.5
2017-10-29T12:15:20.929Z,16.5
2017-10-29T12:16:22.337Z,16.3
2017-10-29T12:17:23.745Z,16.3
2017-10-29T12:18:25.145Z,16.3
2017-10-29T12:19:26.580Z,16.3
2017-10-29T12:20:27.975Z,16.1
2017-10-29T12:21:29.378Z,15.9
2017-10-29T12:22:30.787Z,15.8
2017-10-29T12:23:32.197Z,15.6
2017-10-29T12:24:33.607Z,15.5
2017-10-29T12:25:35.013Z,15.2
2017-10-29T12:26:36.415Z,15.1
2017-10-29T12:27:37.821Z,15.0
2017-10-29T12:28:39.227Z,14.9
2017-10-29T12:29:40.635Z,15.0
2017-10-29T12:30:42.040Z,15.0
2017-10-29T12:31:43.443Z,14.8
2017-10-29T12:32:44.845Z,14.8
2017-10-29T12:33:46.247Z,14.7
2017-10-29T12:34:47.651Z,14.5
2017-10-29T12:35:49.058Z,14.4
2017-10-29T12:36:50.463Z,14.2
2017-10-29T12:37:51.867Z,14.1
2017-10-29T12:38:53.272Z,14.0
2017-10-29T12:39:54.675Z,13.9
2017-10-29T12:40:56.078Z,14.0
2017-10-29T12:41:57.481Z,14.0
2017-10-29T12:42:58.936Z,14.0
2017-10-29T12:44:00.344Z,14.4
2017-10-29T12:45:01.767Z,14.5
2017-10-29T12:46:03.174Z,14.7
2017-10-29T12:47:04.577Z,14.9
2017-10-29T12:48:05.983Z,15.1
2017-10-29T12:49:07.559Z,15.3
2017-10-29T12:50:08.987Z,15.5
2017-10-29T12:51:10.393Z,15.5
2017-10-29T12:52:11.801Z,15.7
2017-10-29T12:53:13.205Z,15.6
2017-10-29T12:54:14.682Z,15.6
2017-10-29T12:55:16.195Z,15.6
2017-10-29T12:56:17.657Z,15.6
2017-10-29T12:57:19.068Z,15.6
2017-10-29T12:58:20.473Z,15.7
2017-10-29T12:59:21.888Z,15.8
2017-10-29T13:00:23.292Z,15.8
2017-10-29T13:01:24.692Z,15.7
2017-10-29T13:02:26.095Z,15.5
2017-10-29T13:03:27.497Z,15.5
2017-10-29T13:04:28.901Z,15.4
2017-10-29T13:05:30.306Z,15.1
2017-10-29T13:06:31.720Z,15.0
2017-10-29T13:07:33.124Z,14.6
2017-10-29T13:08:34.581Z,14.6
2017-10-29T13:09:37.672Z,14.5
2017-10-29T13:10:39.073Z,14.4
2017-10-29T13:11:40.486Z,14.3
2017-10-29T13:12:41.880Z,14.2
2017-10-29T13:13:43.282Z,14.2
2017-10-29T13:14:44.684Z,13.9
2017-10-29T13:15:46.085Z,13.7
2017-10-29T13:16:47.487Z,13.5
2017-10-29T13:17:48.886Z,13.6
2017-10-29T13:18:50.289Z,13.4
2017-10-29T13:19:51.739Z,13.5
2017-10-29T13:20:53.148Z,13.3
2017-10-29T13:21:54.561Z,13.3
2017-10-29T13:22:55.960Z,13.4
2017-10-29T13:23:57.413Z,13.3
2017-10-29T13:24:58.825Z,13.3
2017-10-29T13:26:00.229Z,13.3
2017-10-29T13:27:01.631Z,13.3
2017-10-29T13:28:03.038Z,13.2
2017-10-29T13:29:04.441Z,13.2
2017-10-29T13:30:05.950Z,13.3
2017-10-29T13:31:07.364Z,13.2
2017-10-29T13:32:08.772Z,13.2
2017-10-29T13:33:10.244Z,13.1
2017-10-29T13:34:11.644Z,13.1
2017-10-29T13:35:13.047Z,13.0
2017-10-29T13:36:14.452Z,12.9
2017-10-29T13:37:15.850Z,12.9
2017-10-29T13:38:17.250Z,12.8
2017-10-29T13:39:18.684Z,12.7